Time;durP1;ratioP1;P1;durP2;ratioP2;P2;SDS_P1;SDS_P2;PMS_P1;PMS_P2;Temp;Humidity;BMP_temperature;BMP_pressure;BME280_temperature;BME280_humidity;BME280_pressure;Samples;Min_cycle;Max_cycle;Signal;HPM_P1;HPM_P2
2021/05/10 00:01:36;;;;;;;45.22;43.33;;;;;;;8.62;100.00;101931.31;5036021;28;20049;-77
2021/05/10 00:04:02;;;;;;;35.10;33.47;;;;;;;8.63;100.00;101931.19;5035828;28;20478;-77
2021/05/10 00:06:29;;;;;;;39.03;37.13;;;;;;;8.64;100.00;101934.66;5035982;28;20477;-76
2021/05/10 00:08:56;;;;;;;38.38;36.47;;;;;;;8.56;100.00;101924.84;5035771;28;20049;-76
2021/05/10 00:11:24;;;;;;;34.67;33.10;;;;;;;8.55;100.00;101925.03;5036676;28;20067;-77
2021/05/10 00:13:53;;;;;;;39.22;37.10;;;;;;;8.49;100.00;101926.50;5035671;28;20485;-76
2021/05/10 00:16:20;;;;;;;43.28;41.38;;;;;;;8.47;100.00;101931.13;5036299;28;20053;-76
2021/05/10 00:18:46;;;;;;;37.63;35.88;;;;;;;8.51;100.00;101929.00;5035896;28;20414;-76
2021/05/10 00:21:12;;;;;;;40.63;38.85;;;;;;;8.43;100.00;101933.28;5035607;28;20053;-76
2021/05/10 00:23:39;;;;;;;37.33;35.10;;;;;;;8.40;100.00;101922.19;5036128;28;20118;-76
2021/05/10 00:26:05;;;;;;;36.45;34.85;;;;;;;8.35;100.00;101921.81;5035798;28;20045;-76
2021/05/10 00:28:32;;;;;;;49.97;47.78;;;;;;;8.25;100.00;101925.41;5035748;28;20497;-76
2021/05/10 00:30:59;;;;;;;41.65;39.30;;;;;;;8.36;100.00;101921.66;5036078;28;20478;-77
2021/05/10 00:33:25;;;;;;;42.13;40.33;;;;;;;8.40;100.00;101928.31;5036041;28;20053;-76
2021/05/10 00:35:51;;;;;;;38.95;37.25;;;;;;;8.34;100.00;101925.44;5035537;28;20482;-76
2021/05/10 00:38:18;;;;;;;39.42;37.72;;;;;;;8.26;100.00;101924.44;5035949;28;20053;-76
2021/05/10 00:40:45;;;;;;;37.80;35.55;;;;;;;8.33;100.00;101910.56;5036025;28;20049;-76
2021/05/10 00:43:11;;;;;;;41.50;39.70;;;;;;;8.35;100.00;101914.72;5035830;28;20045;-77
2021/05/10 00:45:38;;;;;;;49.78;44.88;;;;;;;8.45;100.00;101911.94;5035710;28;20061;-77
2021/05/10 00:48:05;;;;;;;82.35;56.85;;;;;;;8.42;100.00;101910.44;5035726;28;20065;-77
2021/05/10 00:50:32;;;;;;;35.92;34.03;;;;;;;8.47;100.00;101910.81;5035416;28;20049;-77
2021/05/10 00:52:58;;;;;;;36.60;34.85;;;;;;;8.33;100.00;101913.22;5035627;28;20075;-77
2021/05/10 00:55:25;;;;;;;39.15;37.35;;;;;;;8.33;100.00;101910.56;5035823;28;20115;-77
2021/05/10 00:57:52;;;;;;;39.65;37.75;;;;;;;8.33;100.00;101911.41;5035240;28;20053;-76
2021/05/10 01:00:21;;;;;;;32.40;30.83;;;;;;;8.27;100.00;101909.41;5035426;28;20050;-77
2021/05/10 01:02:49;;;;;;;34.58;33.08;;;;;;;8.22;100.00;101907.22;5035233;28;20053;-77
2021/05/10 01:05:17;;;;;;;39.25;36.67;;;;;;;8.18;100.00;101902.41;5035197;28;20049;-77
2021/05/10 01:07:44;;;;;;;39.80;37.83;;;;;;;8.20;100.00;101905.72;5035376;28;20050;-77
2021/05/10 01:10:13;;;;;;;36.83;35.08;;;;;;;8.20;100.00;101905.72;5035349;28;20131;-77
2021/05/10 01:12:40;;;;;;;37.95;36.05;;;;;;;8.26;100.00;101899.81;5035079;28;20064;-76
2021/05/10 01:15:08;;;;;;;37.50;35.78;;;;;;;8.23;100.00;101900.97;5035778;28;20063;-76
2021/05/10 01:17:36;;;;;;;37.50;35.90;;;;;;;8.16;100.00;101904.41;5035301;28;20045;-76
2021/05/10 01:20:06;;;;;;;36.15;34.63;;;;;;;8.19;100.00;101896.13;5035105;28;20049;-76
2021/05/10 01:22:39;;;;;;;37.30;35.60;;;;;;;8.12;100.00;101895.94;5034121;28;20512;-77
2021/05/10 01:25:07;;;;;;;36.25;34.53;;;;;;;8.22;100.00;101893.97;5034990;28;20497;-76
2021/05/10 01:27:34;;;;;;;37.30;35.47;;;;;;;8.09;100.00;101904.22;5035005;28;20057;-77
2021/05/10 01:30:00;;;;;;;35.80;34.10;;;;;;;8.12;100.00;101895.13;5034783;28;20057;-77
2021/05/10 01:32:26;;;;;;;34.55;32.80;;;;;;;8.23;100.00;101892.19;5034959;28;20110;-76
2021/05/10 01:34:53;;;;;;;40.40;38.55;;;;;;;8.17;100.00;101888.38;5034486;28;20056;-77
2021/05/10 01:37:19;;;;;;;36.70;34.95;;;;;;;8.19;100.00;101894.31;5034561;28;20056;-76
2021/05/10 01:39:46;;;;;;;35.97;34.38;;;;;;;8.08;100.00;101894.63;5034714;28;20053;-77
2021/05/10 01:42:14;;;;;;;42.78;40.88;;;;;;;8.06;100.00;101893.13;5034713;28;20371;-76
2021/05/10 01:44:40;;;;;;;41.55;39.53;;;;;;;7.94;100.00;101896.06;5034484;28;20041;-76
2021/05/10 01:47:06;;;;;;;41.30;39.40;;;;;;;8.00;100.00;101895.41;5034576;28;20061;-76
2021/05/10 01:49:33;;;;;;;36.53;34.78;;;;;;;8.03;100.00;101899.56;5034428;28;20045;-76
2021/05/10 01:52:01;;;;;;;35.40;33.80;;;;;;;7.93;100.00;101891.75;5034506;28;20049;-76
2021/05/10 01:54:27;;;;;;;32.70;31.30;;;;;;;7.92;100.00;101907.78;5034449;28;20049;-76
2021/05/10 01:56:55;;;;;;;39.13;36.70;;;;;;;8.00;100.00;101900.72;5034095;28;20064;-76
2021/05/10 01:59:22;;;;;;;34.08;32.42;;;;;;;7.95;100.00;101902.16;5034074;28;20513;-76
2021/05/10 02:01:48;;;;;;;34.55;32.85;;;;;;;7.93;100.00;101893.59;5042355;28;20060;-76
2021/05/10 02:04:14;;;;;;;36.50;34.83;;;;;;;7.96;100.00;101888.78;5038819;28;20049;-76
2021/05/10 02:06:41;;;;;;;38.95;37.15;;;;;;;7.92;100.00;101897.19;5034299;28;20045;-76
2021/05/10 02:09:07;;;;;;;37.30;35.60;;;;;;;7.90;100.00;101907.13;5033895;28;20053;-76
2021/05/10 02:11:33;;;;;;;38.55;36.72;;;;;;;7.92;100.00;101905.13;5043861;28;20045;-77
2021/05/10 02:14:01;;;;;;;38.83;37.10;;;;;;;7.86;100.00;101903.13;5053745;28;20044;-76
2021/05/10 02:16:27;;;;;;;36.72;34.90;;;;;;;7.79;100.00;101903.75;5054209;28;20060;-77
2021/05/10 02:18:56;;;;;;;46.85;44.55;;;;;;;7.77;100.00;101899.63;5039008;28;20045;-76
2021/05/10 02:21:29;;;;;;;39.90;38.00;;;;;;;7.69;100.00;101899.59;5043872;28;20051;-76
2021/05/10 02:23:55;;;;;;;41.33;39.08;;;;;;;7.66;100.00;101898.09;5053602;28;20477;-77
2021/05/10 02:26:22;;;;;;;40.40;38.60;;;;;;;7.60;100.00;101896.06;5035466;28;20049;-77
2021/05/10 02:28:48;;;;;;;45.15;43.15;;;;;;;7.54;100.00;101899.34;5033784;28;20056;-77
2021/05/10 02:31:15;;;;;;;47.83;45.65;;;;;;;7.46;100.00;101899.28;5033846;28;20060;-77
2021/05/10 02:33:41;;;;;;;52.78;50.47;;;;;;;7.53;100.00;101909.09;5033628;28;20468;-76
2021/05/10 02:36:08;;;;;;;43.08;41.00;;;;;;;7.40;100.00;101898.09;5033491;28;20080;-76
2021/05/10 02:38:34;;;;;;;43.03;41.03;;;;;;;7.42;100.00;101904.06;5033786;28;20061;-76
2021/05/10 02:41:00;;;;;;;39.70;37.90;;;;;;;7.51;100.00;101904.94;5033656;28;20056;-76
2021/05/10 02:43:27;;;;;;;44.03;42.03;;;;;;;7.34;100.00;101911.94;5033390;28;20057;-76
2021/05/10 02:45:54;;;;;;;41.55;39.50;;;;;;;7.39;100.00;101904.38;5033742;28;20057;-77
2021/05/10 02:48:22;;;;;;;42.60;40.75;;;;;;;7.38;100.00;101904.53;5033373;28;20457;-76
2021/05/10 02:50:48;;;;;;;44.67;42.42;;;;;;;7.40;100.00;101906.03;5032906;28;20060;-76
2021/05/10 02:53:14;;;;;;;35.83;34.22;;;;;;;7.44;100.00;101902.06;5033547;28;20045;-78
2021/05/10 02:55:41;;;;;;;34.95;33.20;;;;;;;7.40;100.00;101900.75;5033320;28;20061;-78
2021/05/10 02:58:07;;;;;;;34.35;32.85;;;;;;;7.30;100.00;101906.16;5033572;28;20498;-76
2021/05/10 03:00:34;;;;;;;34.67;32.88;;;;;;;7.39;100.00;101904.38;5033432;28;20050;-76
2021/05/10 03:03:00;;;;;;;37.80;36.10;;;;;;;7.29;100.00;101915.06;5033446;28;20053;-76
2021/05/10 03:05:28;;;;;;;33.28;31.77;;;;;;;7.29;100.00;101909.78;5033243;28;20060;-76
2021/05/10 03:07:55;;;;;;;31.45;29.92;;;;;;;7.25;100.00;101918.16;5033565;28;20045;-76
2021/05/10 03:10:24;;;;;;;28.80;27.50;;;;;;;7.33;100.00;101924.34;5033229;28;20065;-77
2021/05/10 03:12:51;;;;;;;29.13;27.73;;;;;;;7.37;100.00;101924.84;5033163;28;20065;-76
2021/05/10 03:15:20;;;;;;;31.23;29.73;;;;;;;7.43;100.00;101918.94;5033049;28;20041;-76
2021/05/10 03:17:47;;;;;;;34.88;33.28;;;;;;;7.45;100.00;101914.34;5033354;28;20053;-76
2021/05/10 03:20:16;;;;;;;30.73;29.23;;;;;;;7.46;100.00;101923.91;5033009;28;20046;-77
2021/05/10 03:22:43;;;;;;;31.55;30.15;;;;;;;7.53;100.00;101916.19;5032778;28;20049;-76
2021/05/10 03:25:11;;;;;;;30.35;28.95;;;;;;;7.63;100.00;101922.22;5033273;28;20123;-76
2021/05/10 03:27:41;;;;;;;29.40;27.90;;;;;;;7.64;100.00;101917.75;5033200;28;20053;-76
2021/05/10 03:30:09;;;;;;;30.48;28.88;;;;;;;7.61;100.00;101923.34;5032934;28;20053;-77
2021/05/10 03:32:36;;;;;;;32.45;30.95;;;;;;;7.64;100.00;101921.22;5032882;28;20049;-77
2021/05/10 03:35:04;;;;;;;33.85;32.15;;;;;;;7.69;100.00;101928.69;5033054;28;20115;-76
2021/05/10 03:37:31;;;;;;;31.50;29.90;;;;;;;7.81;100.00;101930.06;5033129;28;20096;-76
2021/05/10 03:39:58;;;;;;;33.30;31.70;;;;;;;7.77;100.00;101937.47;5033298;28;20053;-76
2021/05/10 03:42:25;;;;;;;33.38;31.77;;;;;;;7.73;100.00;101930.84;5032782;28;20049;-77
2021/05/10 03:44:52;;;;;;;29.35;27.75;;;;;;;7.77;100.00;101929.53;5034596;28;20111;-76
2021/05/10 03:47:19;;;;;;;30.02;28.20;;;;;;;7.89;100.00;101930.09;5037070;28;20049;-76
2021/05/10 03:49:45;;;;;;;30.20;28.70;;;;;;;7.93;100.00;101931.44;5036500;28;20041;-76
2021/05/10 03:52:11;;;;;;;27.88;26.30;;;;;;;7.90;100.00;101928.28;5036458;28;20179;-76
2021/05/10 03:54:37;;;;;;;27.77;26.38;;;;;;;8.02;100.00;101924.38;5036461;28;20060;-76
2021/05/10 03:57:05;;;;;;;40.00;37.50;;;;;;;8.04;100.00;101925.03;5036259;28;20479;-76
2021/05/10 03:59:31;;;;;;;51.50;47.90;;;;;;;8.08;100.00;101930.81;5036755;28;20118;-76
2021/05/10 04:02:01;;;;;;;60.22;55.08;;;;;;;8.12;100.00;101925.06;5036315;28;20045;-76
2021/05/10 04:04:34;;;;;;;73.78;66.97;;;;;;;8.31;100.00;101928.44;5036340;28;20049;-76
2021/05/10 04:07:18;;;;;;;63.65;57.95;;;;;;;8.32;100.00;101933.56;5036500;28;20387;-76
2021/05/10 04:10:04;;;;;;;65.25;59.55;;;;;;;8.40;100.00;101930.13;5036568;28;20080;-77
2021/05/10 04:15:16;;;;;;;52.55;49.05;;;;;;;8.54;100.00;101933.97;5036408;28;20064;-76
2021/05/10 04:17:42;;;;;;;27.98;26.67;;;;;;;8.71;100.00;101935.63;5035934;28;20049;-76
2021/05/10 04:20:10;;;;;;;27.38;26.02;;;;;;;8.81;100.00;101941.63;5036020;28;20075;-76
2021/05/10 04:22:38;;;;;;;27.73;26.33;;;;;;;9.18;100.00;101943.78;5036120;28;20046;-76
2021/05/10 04:25:05;;;;;;;29.27;27.27;;;;;;;9.24;100.00;101939.63;5036169;28;20045;-76
2021/05/10 04:27:32;;;;;;;27.38;26.05;;;;;;;9.28;100.00;101937.47;5035899;28;20060;-76
2021/05/10 04:29:58;;;;;;;27.50;26.20;;;;;;;9.40;100.00;101936.94;5035662;28;20465;-76
2021/05/10 04:32:25;;;;;;;26.27;25.05;;;;;;;9.55;100.00;101942.41;5036020;28;20060;-76
2021/05/10 04:34:51;;;;;;;25.20;23.80;;;;;;;9.64;100.00;101943.22;5035685;28;20045;-76
2021/05/10 04:37:17;;;;;;;24.90;23.50;;;;;;;9.81;100.00;101944.00;5035347;28;20049;-77
2021/05/10 04:39:43;;;;;;;24.33;23.02;;;;;;;9.88;100.00;101942.31;5036116;28;20119;-77
2021/05/10 04:42:10;;;;;;;24.88;23.55;;;;;;;9.89;100.00;101948.44;5035901;28;20054;-76
2021/05/10 04:44:37;;;;;;;26.98;25.58;;;;;;;10.04;100.00;101946.72;5035539;28;20490;-76
2021/05/10 04:47:03;;;;;;;28.60;27.30;;;;;;;10.17;100.00;101944.34;5035863;28;20103;-76
2021/05/10 04:49:30;;;;;;;26.20;24.77;;;;;;;10.26;100.00;101953.13;5035260;28;20049;-76
2021/05/10 04:51:56;;;;;;;26.30;24.83;;;;;;;10.40;100.00;101954.22;5035392;28;20079;-76
2021/05/10 04:54:22;;;;;;;26.02;24.70;;;;;;;10.53;100.00;101944.69;5035703;28;20056;-76
2021/05/10 04:56:48;;;;;;;26.35;24.95;;;;;;;10.63;100.00;101951.59;5035432;28;20107;-76
2021/05/10 04:59:15;;;;;;;27.27;25.75;;;;;;;10.90;100.00;101951.06;5035257;28;20060;-76
2021/05/10 05:01:43;;;;;;;26.73;25.33;;;;;;;10.97;100.00;101943.22;5035007;28;20528;-76
2021/05/10 05:04:09;;;;;;;25.83;24.63;;;;;;;11.04;100.00;101948.63;5035103;28;20147;-76
2021/05/10 05:06:35;;;;;;;24.67;23.38;;;;;;;11.17;100.00;101956.84;5034888;28;20111;-76
2021/05/10 05:09:02;;;;;;;25.20;23.77;;;;;;;11.27;100.00;101948.59;5035128;28;20053;-76
2021/05/10 05:11:28;;;;;;;23.60;22.40;;;;;;;11.35;100.00;101952.03;5034878;28;20053;-76
2021/05/10 05:13:54;;;;;;;23.35;22.33;;;;;;;11.43;100.00;101943.13;5035207;28;20053;-76
2021/05/10 05:16:20;;;;;;;24.38;23.08;;;;;;;11.53;100.00;101946.38;5035029;28;20057;-76
2021/05/10 05:18:47;;;;;;;26.95;25.75;;;;;;;11.60;100.00;101949.94;5034886;28;20064;-76
2021/05/10 05:21:14;;;;;;;26.80;25.45;;;;;;;11.71;100.00;101948.66;5034876;28;20088;-76
2021/05/10 05:23:40;;;;;;;23.85;22.80;;;;;;;11.84;100.00;101940.84;5035184;28;20112;-76
2021/05/10 05:26:06;;;;;;;23.67;22.58;;;;;;;12.02;100.00;101942.34;5034585;28;20481;-76
2021/05/10 05:28:33;;;;;;;23.90;22.70;;;;;;;12.08;100.00;101946.94;5034661;28;20457;-76
2021/05/10 05:31:02;;;;;;;24.05;22.75;;;;;;;12.35;100.00;101948.91;5034650;28;20057;-76
2021/05/10 05:33:28;;;;;;;24.05;22.85;;;;;;;12.42;100.00;101942.81;5034782;28;20045;-76
2021/05/10 05:35:56;;;;;;;24.85;23.55;;;;;;;12.60;100.00;101946.69;5034304;28;20050;-76
2021/05/10 05:38:22;;;;;;;24.45;22.55;;;;;;;12.79;100.00;101947.91;5034032;28;20053;-76
2021/05/10 05:40:49;;;;;;;23.45;22.15;;;;;;;12.77;100.00;101939.28;5033657;28;20115;-76
2021/05/10 05:43:15;;;;;;;23.38;22.17;;;;;;;12.93;100.00;101945.38;5034145;28;20060;-76
2021/05/10 05:45:43;;;;;;;24.75;23.38;;;;;;;12.96;100.00;101956.47;5033941;28;20449;-76
2021/05/10 05:48:11;;;;;;;24.45;23.15;;;;;;;13.24;100.00;101953.03;5034074;28;20041;-76
2021/05/10 05:50:38;;;;;;;23.00;21.60;;;;;;;13.46;100.00;101953.81;5034395;28;20053;-76
2021/05/10 05:53:05;;;;;;;22.38;21.25;;;;;;;13.52;100.00;101943.22;5034031;28;20485;-76
2021/05/10 05:55:32;;;;;;;23.38;22.17;;;;;;;13.65;100.00;101942.47;5034448;28;20418;-77
2021/05/10 05:57:59;;;;;;;23.77;22.58;;;;;;;13.85;100.00;101947.06;5033873;28;20046;-76
2021/05/10 06:00:26;;;;;;;23.83;22.33;;;;;;;14.05;100.00;101947.19;5033834;28;20466;-76
2021/05/10 06:02:52;;;;;;;23.58;21.98;;;;;;;14.05;100.00;101944.50;5034081;28;20045;-76
2021/05/10 06:05:19;;;;;;;23.58;22.33;;;;;;;14.23;99.68;101954.66;5034166;28;20064;-76
2021/05/10 06:07:47;;;;;;;24.10;22.40;;;;;;;14.27;100.00;101951.38;5033003;28;20111;-76
2021/05/10 06:10:17;;;;;;;24.05;22.55;;;;;;;15.46;100.00;101964.09;5033730;28;20054;-80
2021/05/10 06:12:45;;;;;;;47.90;44.47;;;;;;;15.85;100.00;101957.03;5034111;28;20144;-79
2021/05/10 06:15:12;;;;;;;30.77;28.48;;;;;;;15.70;100.00;101961.81;5048365;28;20053;-77
2021/05/10 06:17:39;;;;;;;24.42;23.02;;;;;;;14.86;97.80;101956.06;5043647;28;20486;-77
2021/05/10 06:20:06;;;;;;;25.92;24.25;;;;;;;14.82;97.11;101948.66;5032751;28;20046;-77
2021/05/10 06:22:33;;;;;;;24.67;23.27;;;;;;;15.06;94.72;101958.75;5033439;28;20042;-76
2021/05/10 06:24:59;;;;;;;24.48;23.08;;;;;;;14.95;96.88;101951.34;5034223;28;20103;-77
2021/05/10 06:27:26;;;;;;;24.08;22.67;;;;;;;15.13;95.89;101953.41;5033924;28;20046;-76
2021/05/10 06:29:52;;;;;;;23.33;22.00;;;;;;;15.19;94.25;101947.25;5033324;28;20053;-77
2021/05/10 06:32:19;;;;;;;23.83;22.20;;;;;;;15.40;93.36;101938.16;5033780;28;20060;-77
2021/05/10 06:34:45;;;;;;;23.17;21.88;;;;;;;15.57;88.35;101954.59;5032571;28;20049;-77
2021/05/10 06:37:18;;;;;;;22.67;21.33;;;;;;;15.76;91.59;101937.72;5033745;28;20053;-77
2021/05/10 06:39:45;;;;;;;29.02;27.33;;;;;;;15.86;83.42;101944.47;5033570;28;20053;-77
2021/05/10 06:42:12;;;;;;;22.90;21.70;;;;;;;15.95;83.93;101951.25;5032865;28;20504;-77
2021/05/10 06:44:39;;;;;;;23.25;22.05;;;;;;;15.97;81.52;101943.78;5033312;28;20053;-77
2021/05/10 06:47:07;;;;;;;23.35;22.15;;;;;;;16.23;81.80;101940.19;5033441;28;20068;-77
2021/05/10 06:49:34;;;;;;;23.40;22.10;;;;;;;16.27;66.75;101941.41;5033385;28;20049;-78
2021/05/10 06:52:01;;;;;;;24.15;22.95;;;;;;;16.26;64.42;101940.59;5031338;28;20486;-76
2021/05/10 06:54:27;;;;;;;24.13;22.83;;;;;;;16.23;65.22;101942.88;5033033;28;20064;-76
2021/05/10 06:56:53;;;;;;;24.05;22.65;;;;;;;16.19;65.94;101939.81;5049616;28;20053;-77
2021/05/10 06:59:20;;;;;;;22.50;21.15;;;;;;;16.44;66.51;101933.69;5039566;28;20050;-77
2021/05/10 07:01:48;;;;;;;22.50;21.30;;;;;;;16.66;63.18;101940.34;5041738;28;20049;-77
2021/05/10 07:04:14;;;;;;;22.70;21.50;;;;;;;17.03;61.59;101937.00;5033609;28;20053;-77
2021/05/10 07:06:41;;;;;;;22.13;20.88;;;;;;;16.95;61.68;101943.50;5033278;28;20517;-77
2021/05/10 07:09:07;;;;;;;21.48;20.27;;;;;;;17.30;61.19;101946.47;5032497;28;20049;-77
2021/05/10 07:11:34;;;;;;;22.13;21.02;;;;;;;16.98;49.37;101948.41;5032342;28;20115;-77
2021/05/10 07:14:01;;;;;;;22.35;21.10;;;;;;;16.96;47.15;101945.13;5032881;28;20138;-77
2021/05/10 07:16:27;;;;;;;22.05;20.85;;;;;;;17.15;53.60;101946.81;5033457;28;20053;-77
2021/05/10 07:18:55;;;;;;;22.45;21.23;;;;;;;17.14;45.46;101950.53;5032859;28;20045;-77
2021/05/10 07:21:21;;;;;;;22.42;21.33;;;;;;;17.16;42.19;101953.03;5037164;28;20053;-77
2021/05/10 07:23:48;;;;;;;22.80;21.73;;;;;;;17.24;44.23;101944.66;5036874;28;20103;-76
2021/05/10 07:26:14;;;;;;;23.08;21.95;;;;;;;17.37;48.29;101951.81;5037455;28;20406;-77
2021/05/10 07:28:40;;;;;;;21.73;20.63;;;;;;;17.49;42.92;101955.41;5037454;28;20073;-77
2021/05/10 07:31:07;;;;;;;21.10;19.90;;;;;;;17.58;45.56;101943.31;5036748;28;20045;-77
2021/05/10 07:33:33;;;;;;;21.40;20.20;;;;;;;17.58;41.67;101943.31;5034767;28;20065;-78
2021/05/10 07:36:00;;;;;;;28.00;26.65;;;;;;;17.56;42.54;101947.28;5036617;28;20049;-76
2021/05/10 07:38:27;;;;;;;21.05;19.83;;;;;;;17.65;41.97;101937.06;5036679;28;20446;-77
2021/05/10 07:40:53;;;;;;;22.40;20.98;;;;;;;17.58;40.84;101939.81;5036372;28;20127;-78
2021/05/10 07:43:20;;;;;;;22.30;21.10;;;;;;;17.69;38.40;101943.63;5037167;28;20438;-77
2021/05/10 07:45:46;;;;;;;22.27;20.88;;;;;;;17.84;39.21;101938.72;5037688;28;20127;-77
2021/05/10 07:48:13;;;;;;;22.65;21.25;;;;;;;17.95;37.82;101939.84;5047893;28;20485;-77
2021/05/10 07:50:40;;;;;;;29.10;27.50;;;;;;;17.84;37.40;101942.22;5036900;28;20060;-78
2021/05/10 07:53:09;;;;;;;22.48;21.25;;;;;;;18.09;39.59;101941.31;5036716;28;20076;-77
2021/05/10 07:55:36;;;;;;;22.30;21.00;;;;;;;18.17;39.52;101942.88;5036365;28;20045;-77
2021/05/10 07:58:03;;;;;;;23.05;21.65;;;;;;;18.25;35.35;101942.56;5018193;28;20136;-76
2021/05/10 08:00:31;;;;;;;21.90;20.60;;;;;;;18.31;34.50;101949.72;5036639;28;20046;-77
2021/05/10 08:03:06;;;;;;;21.38;20.02;;;;;;;18.38;33.70;101946.94;5036233;28;20088;-77
2021/05/10 08:05:32;;;;;;;21.33;19.73;;;;;;;18.21;33.32;101949.44;5035555;28;20045;-77
2021/05/10 08:07:58;;;;;;;21.50;20.00;;;;;;;18.50;35.13;101948.63;5036044;28;20056;-77
2021/05/10 08:10:26;;;;;;;20.77;19.48;;;;;;;18.44;34.45;101943.34;5036068;28;20045;-77
2021/05/10 08:12:53;;;;;;;20.85;19.45;;;;;;;18.42;35.35;101942.72;5036089;28;20061;-77
2021/05/10 08:15:19;;;;;;;21.25;19.88;;;;;;;18.22;35.02;101940.34;5035949;28;20508;-77
2021/05/10 08:17:46;;;;;;;20.75;19.45;;;;;;;18.51;35.25;101942.19;5038319;28;20474;-77
2021/05/10 08:20:13;;;;;;;21.38;19.85;;;;;;;18.87;35.50;101939.63;5035683;28;20065;-77
2021/05/10 08:22:39;;;;;;;21.20;19.80;;;;;;;18.94;38.52;101943.84;5034457;28;20045;-77
2021/05/10 08:25:07;;;;;;;23.17;21.67;;;;;;;18.75;42.54;101953.84;5034464;28;20389;-77
2021/05/10 08:27:35;;;;;;;20.90;19.50;;;;;;;19.07;36.14;101942.81;5034712;28;20056;-77
2021/05/10 08:30:03;;;;;;;21.05;19.77;;;;;;;18.88;34.64;101943.94;5034227;28;20437;-77
2021/05/10 08:32:29;;;;;;;21.35;20.15;;;;;;;18.95;34.19;101942.78;5034563;28;20080;-77
2021/05/10 08:34:56;;;;;;;23.08;21.67;;;;;;;18.98;34.95;101933.44;5034804;28;20126;-77
2021/05/10 08:37:24;;;;;;;22.00;20.70;;;;;;;19.31;36.79;101934.75;5034343;28;20525;-77
2021/05/10 08:39:52;;;;;;;27.58;25.88;;;;;;;18.96;34.09;101936.34;5034431;28;20049;-77
2021/05/10 08:42:19;;;;;;;22.17;20.88;;;;;;;19.04;40.63;101929.81;5034282;28;20049;-77
2021/05/10 08:44:46;;;;;;;21.80;20.40;;;;;;;19.14;35.56;101929.22;5034304;28;20049;-77
2021/05/10 08:47:12;;;;;;;22.10;20.80;;;;;;;19.27;36.99;101938.94;5034333;28;20433;-77
2021/05/10 08:49:39;;;;;;;21.52;20.33;;;;;;;19.68;35.92;101928.03;5034113;28;20042;-77
2021/05/10 08:52:07;;;;;;;22.67;21.38;;;;;;;19.43;36.86;101927.47;5033070;28;20070;-77
2021/05/10 08:54:33;;;;;;;21.88;20.58;;;;;;;19.41;35.50;101925.00;5035204;28;20075;-77
2021/05/10 08:57:01;;;;;;;21.80;20.70;;;;;;;19.25;35.60;101928.41;5034956;28;20041;-76
2021/05/10 08:59:27;;;;;;;26.42;24.90;;;;;;;19.69;37.82;101912.69;5035294;28;20402;-77
2021/05/10 09:01:58;;;;;;;22.65;21.45;;;;;;;19.68;37.35;101911.88;5034912;28;20042;-77
2021/05/10 09:04:30;;;;;;;22.23;20.92;;;;;;;20.01;35.11;101907.69;5015578;28;20107;-77
2021/05/10 09:07:15;;;;;;;23.00;21.50;;;;;;;19.82;33.93;101903.53;5026755;28;20096;-76
2021/05/10 09:09:53;;;;;;;22.20;20.70;;;;;;;19.96;35.25;101895.97;5034635;28;20053;-77
2021/05/10 09:12:22;;;;;;;21.48;20.27;;;;;;;19.96;37.51;101895.97;5037137;28;20049;-77
2021/05/10 09:14:48;;;;;;;21.17;19.80;;;;;;;20.13;35.23;101900.38;5034000;28;20075;-78
2021/05/10 09:17:16;;;;;;;22.08;20.80;;;;;;;20.65;36.61;101896.72;5035455;28;20517;-77
2021/05/10 09:19:45;;;;;;;23.20;21.95;;;;;;;19.69;61.81;101896.50;5034819;28;20048;-78
2021/05/10 09:22:12;;;;;;;23.60;22.42;;;;;;;20.69;36.17;101888.94;5034464;28;20054;-77
2021/05/10 09:24:52;;;;;;;23.25;22.05;;;;;;;20.53;34.92;101891.38;5034731;28;20053;-76
2021/05/10 09:27:25;;;;;;;22.90;21.60;;;;;;;20.45;34.61;101899.84;5024041;28;20068;-77
2021/05/10 09:30:11;;;;;;;23.42;22.08;;;;;;;20.19;36.14;101887.78;5034430;28;20391;-76
2021/05/10 09:32:40;;;;;;;25.40;23.80;;;;;;;20.65;36.31;101883.22;5033740;28;20084;-77
2021/05/10 09:35:14;;;;;;;22.65;21.35;;;;;;;20.46;35.78;101881.78;5033243;28;20037;-77
2021/05/10 09:37:40;;;;;;;21.92;20.63;;;;;;;20.85;34.42;101876.50;5033610;28;20053;-77
2021/05/10 09:40:08;;;;;;;21.83;20.63;;;;;;;20.68;35.74;101873.81;5033177;28;20049;-76
2021/05/10 09:42:48;;;;;;;22.23;21.02;;;;;;;20.73;40.77;101863.13;5032635;28;20060;-77
2021/05/10 09:45:31;;;;;;;22.50;21.10;;;;;;;20.81;36.22;101874.28;5029498;28;20060;-76
2021/05/10 09:48:10;;;;;;;24.75;23.27;;;;;;;20.56;33.31;101863.91;5033263;28;20064;-77
2021/05/10 09:50:38;;;;;;;23.40;21.92;;;;;;;21.03;34.66;101860.06;5033372;28;20049;-77
2021/05/10 09:53:06;;;;;;;22.50;21.00;;;;;;;20.97;35.67;101866.44;5033535;28;20111;-76
2021/05/10 09:55:47;;;;;;;21.55;20.35;;;;;;;20.92;34.37;101864.47;5029266;28;20107;-77
2021/05/10 09:58:14;;;;;;;21.48;20.08;;;;;;;20.81;36.44;101857.28;5033440;28;20449;-77
2021/05/10 10:00:40;;;;;;;22.45;20.75;;;;;;;20.92;37.00;101859.06;5032415;28;20057;-77
2021/05/10 10:03:23;;;;;;;21.30;19.95;;;;;;;21.50;36.74;101848.81;5032928;28;20048;-76
2021/05/10 10:05:51;;;;;;;30.27;28.60;;;;;;;21.57;33.36;101852.13;5032853;28;20049;-77
2021/05/10 10:08:18;;;;;;;22.40;21.23;;;;;;;21.27;33.40;101847.97;5032994;28;20057;-77
2021/05/10 10:10:44;;;;;;;21.85;20.65;;;;;;;20.89;33.72;101846.06;5032921;28;20045;-77
2021/05/10 10:13:11;;;;;;;23.00;21.70;;;;;;;21.33;32.01;101837.19;5032687;28;20482;-77
2021/05/10 10:15:37;;;;;;;22.90;21.42;;;;;;;20.91;34.96;101841.25;5032804;28;20056;-76
2021/05/10 10:18:04;;;;;;;27.95;26.45;;;;;;;21.43;31.78;101831.97;5032568;28;20084;-77
2021/05/10 10:20:33;;;;;;;24.45;23.02;;;;;;;21.50;33.36;101832.59;5032429;28;20050;-77
2021/05/10 10:23:00;;;;;;;24.77;23.50;;;;;;;21.41;34.74;101834.91;5031243;28;20048;-77
2021/05/10 10:25:26;;;;;;;26.13;24.55;;;;;;;21.81;32.15;101817.53;5033058;28;20111;-77
2021/05/10 10:27:54;;;;;;;21.52;20.33;;;;;;;21.35;34.39;101822.38;5032420;28;20056;-76
2021/05/10 10:30:23;;;;;;;22.73;21.42;;;;;;;21.56;30.82;101815.38;5033465;28;20053;-77
2021/05/10 10:32:52;;;;;;;22.75;21.50;;;;;;;21.84;30.41;101816.19;5032741;28;20056;-76
2021/05/10 10:35:20;;;;;;;22.50;21.25;;;;;;;21.73;30.13;101815.28;5032493;28;20489;-76
2021/05/10 10:37:47;;;;;;;23.65;22.50;;;;;;;21.43;30.98;101813.88;5029888;28;20112;-76
2021/05/10 10:40:18;;;;;;;21.08;19.77;;;;;;;21.50;31.94;101813.66;5032884;28;20052;-76
2021/05/10 10:42:44;;;;;;;26.05;24.50;;;;;;;21.62;32.39;101810.84;5033512;28;20393;-77
2021/05/10 10:45:11;;;;;;;23.85;22.50;;;;;;;22.64;30.58;101795.53;5033543;28;20049;-77
2021/05/10 10:47:45;;;;;;;23.15;21.85;;;;;;;22.10;30.26;101799.16;5032587;28;20230;-76
2021/05/10 10:50:13;;;;;;;22.48;21.20;;;;;;;22.25;30.01;101795.00;5033372;28;20464;-76
2021/05/10 10:52:48;;;;;;;23.13;22.02;;;;;;;21.99;31.25;101792.00;5033535;28;20046;-77
2021/05/10 10:55:17;;;;;;;20.98;19.80;;;;;;;22.22;36.27;101779.28;5033167;28;20137;-77
2021/05/10 10:57:44;;;;;;;21.25;20.05;;;;;;;22.80;32.84;101783.72;5033115;28;20111;-76
2021/05/10 11:00:14;;;;;;;21.58;20.17;;;;;;;22.77;31.26;101778.84;5031631;28;20060;-76
2021/05/10 11:02:43;;;;;;;23.17;21.98;;;;;;;22.42;30.71;101765.88;5033051;28;20069;-77
2021/05/10 11:05:15;;;;;;;22.33;21.00;;;;;;;22.61;31.88;101769.00;5032794;28;20053;-76
2021/05/10 11:07:55;;;;;;;21.33;20.13;;;;;;;22.45;34.01;101768.09;5032952;28;20049;-77
2021/05/10 11:10:46;;;;;;;21.35;20.25;;;;;;;22.04;32.68;101756.91;5030743;28;20064;-76
2021/05/10 11:13:33;;;;;;;20.65;19.30;;;;;;;22.15;32.04;101761.34;5032900;28;20045;-77
2021/05/10 11:16:00;;;;;;;21.60;19.92;;;;;;;22.60;31.97;101760.06;5017478;28;20461;-76